createdAt,value
2023-03-26T00:02:05.048Z,8.47
2023-03-26T00:04:34.754Z,8.46
2023-03-26T00:07:05.541Z,8.45
2023-03-26T00:09:34.102Z,8.45
2023-03-26T00:12:02.744Z,8.44
2023-03-26T00:14:32.773Z,8.41
2023-03-26T00:17:04.325Z,8.39
2023-03-26T00:19:33.999Z,8.44
2023-03-26T00:22:03.897Z,8.45
2023-03-26T00:24:32.219Z,8.44
2023-03-26T00:27:01.192Z,8.43
2023-03-26T00:29:33.461Z,8.40
2023-03-26T00:32:07.247Z,8.41
2023-03-26T00:34:35.685Z,8.41
2023-03-26T00:37:08.635Z,8.38
2023-03-26T00:39:37.519Z,8.37
2023-03-26T00:42:07.462Z,8.36
2023-03-26T00:44:35.917Z,8.32
2023-03-26T00:47:04.203Z,8.29
2023-03-26T00:49:32.240Z,8.26
2023-03-26T00:52:01.684Z,8.25
2023-03-26T00:54:30.685Z,8.23
2023-03-26T00:56:58.914Z,8.21
2023-03-26T00:59:30.546Z,8.19
2023-03-26T01:01:59.041Z,8.17
2023-03-26T01:04:31.710Z,8.14
2023-03-26T01:07:17.017Z,8.12
2023-03-26T01:09:50.540Z,8.12
2023-03-26T01:12:23.471Z,8.10
2023-03-26T01:14:55.132Z,8.07
2023-03-26T01:17:24.168Z,8.03
2023-03-26T01:20:13.290Z,8.00
2023-03-26T01:22:49.472Z,7.97
2023-03-26T01:25:18.148Z,7.96
2023-03-26T01:27:55.960Z,7.97
2023-03-26T01:30:42.628Z,7.91
2023-03-26T01:33:30.540Z,7.89
2023-03-26T01:36:05.572Z,7.88
2023-03-26T01:38:52.244Z,7.83
2023-03-26T01:41:29.925Z,7.81
2023-03-26T01:44:04.705Z,7.79
2023-03-26T01:46:36.526Z,7.78
2023-03-26T01:49:06.071Z,7.80
2023-03-26T01:51:35.758Z,7.77
2023-03-26T01:54:07.908Z,7.75
2023-03-26T01:57:04.071Z,7.77
2023-03-26T01:59:43.679Z,7.73
2023-03-26T02:02:16.259Z,7.71
2023-03-26T02:05:04.911Z,7.71
2023-03-26T02:07:51.189Z,7.66
2023-03-26T02:10:31.316Z,7.57
2023-03-26T02:13:00.737Z,7.45
2023-03-26T02:15:29.388Z,7.34
2023-03-26T02:17:59.961Z,7.24
2023-03-26T02:20:30.422Z,7.13
2023-03-26T02:22:59.925Z,7.03
2023-03-26T02:25:28.702Z,6.94
2023-03-26T02:27:58.825Z,6.83
2023-03-26T02:30:29.868Z,6.73
2023-03-26T02:33:00.253Z,6.62
2023-03-26T02:35:35.507Z,6.49
2023-03-26T02:38:04.116Z,6.39
2023-03-26T02:40:32.600Z,6.29
2023-03-26T02:43:01.488Z,6.19
2023-03-26T02:45:30.988Z,6.07
2023-03-26T02:48:31.629Z,5.95
2023-03-26T02:51:13.626Z,5.84
2023-03-26T02:53:54.911Z,5.76
2023-03-26T02:57:01.347Z,5.66
2023-03-26T03:00:05.991Z,5.58
2023-03-26T03:02:40.564Z,5.53
2023-03-26T03:05:31.539Z,5.51
2023-03-26T03:08:11.831Z,5.50
2023-03-26T03:10:44.598Z,5.50
2023-03-26T03:13:21.666Z,5.49
2023-03-26T03:15:50.756Z,5.46
2023-03-26T03:18:22.381Z,5.42
2023-03-26T03:20:51.030Z,5.40
2023-03-26T03:23:19.177Z,5.37
2023-03-26T03:25:48.068Z,5.34
2023-03-26T03:28:18.295Z,5.29
2023-03-26T03:30:47.226Z,5.24
2023-03-26T03:33:22.021Z,5.18
2023-03-26T03:35:51.352Z,5.13
2023-03-26T03:38:19.716Z,5.07
2023-03-26T03:40:49.968Z,5.00
2023-03-26T03:43:18.606Z,4.93
2023-03-26T03:46:00.992Z,4.83
2023-03-26T03:48:48.357Z,4.71
2023-03-26T03:51:18.533Z,4.58
2023-03-26T03:53:57.603Z,4.46
2023-03-26T03:56:39.205Z,4.38
2023-03-26T03:59:25.577Z,4.31
2023-03-26T04:01:54.065Z,4.27
2023-03-26T04:04:32.953Z,4.24
2023-03-26T04:07:06.288Z,4.20
2023-03-26T04:09:48.082Z,4.19
2023-03-26T04:12:18.404Z,4.21
2023-03-26T04:14:55.076Z,4.22
2023-03-26T04:17:23.258Z,4.25
2023-03-26T04:19:55.721Z,4.24
2023-03-26T04:22:36.709Z,4.25
2023-03-26T04:25:07.963Z,4.27
2023-03-26T04:27:48.004Z,4.33
2023-03-26T04:30:35.261Z,4.38
2023-03-26T04:33:16.365Z,4.43
2023-03-26T04:35:45.605Z,4.47
2023-03-26T04:38:16.894Z,4.51
2023-03-26T04:40:54.158Z,4.55
2023-03-26T04:43:47.555Z,4.60
2023-03-26T04:46:43.710Z,4.59
2023-03-26T04:49:17.736Z,4.53
2023-03-26T04:51:47.248Z,4.50
2023-03-26T04:54:39.079Z,4.46
2023-03-26T04:57:38.930Z,4.45
2023-03-26T05:00:21.713Z,4.73
2023-03-26T05:02:56.284Z,5.20
2023-03-26T05:05:26.865Z,5.69
2023-03-26T05:07:56.465Z,6.26
2023-03-26T05:10:24.969Z,6.97
2023-03-26T05:13:01.623Z,7.79
2023-03-26T05:15:34.377Z,8.60
2023-03-26T05:18:11.809Z,9.22
2023-03-26T05:20:45.599Z,10.04
2023-03-26T05:23:14.190Z,10.93
2023-03-26T05:25:49.530Z,11.80
2023-03-26T05:28:23.382Z,12.66
2023-03-26T05:31:01.378Z,13.50
2023-03-26T05:33:32.219Z,14.32
2023-03-26T05:36:13.344Z,15.05
2023-03-26T05:38:47.795Z,15.83
2023-03-26T05:41:19.247Z,16.61
2023-03-26T05:43:48.267Z,17.12
2023-03-26T05:46:24.420Z,17.70
2023-03-26T05:48:52.796Z,17.91
2023-03-26T05:51:23.520Z,18.07
2023-03-26T05:54:07.423Z,18.35
2023-03-26T05:56:58.521Z,18.08
2023-03-26T05:59:45.717Z,17.27
2023-03-26T06:02:32.034Z,16.89
2023-03-26T06:05:18.471Z,16.94
2023-03-26T06:08:07.378Z,17.42
2023-03-26T06:10:40.154Z,17.58
2023-03-26T06:13:08.824Z,18.07
2023-03-26T06:15:40.441Z,18.84
2023-03-26T06:18:29.019Z,19.44
2023-03-26T06:21:18.939Z,19.73
2023-03-26T06:23:57.373Z,20.11
2023-03-26T06:26:47.201Z,20.39
2023-03-26T06:29:31.277Z,20.44
2023-03-26T06:32:20.370Z,20.41
2023-03-26T06:35:11.877Z,21.12
2023-03-26T06:37:39.888Z,21.99
2023-03-26T06:40:09.569Z,22.70
2023-03-26T06:43:16.242Z,22.89
2023-03-26T06:46:23.717Z,22.95
2023-03-26T06:48:54.812Z,23.13
2023-03-26T06:51:41.699Z,22.93
2023-03-26T06:54:24.455Z,22.81
2023-03-26T06:57:00.019Z,22.54
2023-03-26T06:59:46.546Z,23.03
2023-03-26T07:02:33.259Z,23.78
2023-03-26T07:05:30.921Z,24.89
2023-03-26T07:08:17.428Z,25.68
2023-03-26T07:11:25.574Z,25.27
2023-03-26T07:14:13.653Z,25.78
2023-03-26T07:16:41.778Z,26.17
2023-03-26T07:19:36.075Z,26.35
2023-03-26T07:22:04.727Z,27.10
2023-03-26T07:24:52.157Z,27.96
2023-03-26T07:27:42.140Z,28.36
2023-03-26T07:30:29.136Z,27.87
2023-03-26T07:33:37.747Z,27.24
2023-03-26T07:36:56.316Z,26.23
2023-03-26T07:40:38.173Z,25.50
2023-03-26T07:43:50.364Z,24.97
2023-03-26T07:46:39.319Z,24.42
2023-03-26T07:49:24.167Z,23.95
2023-03-26T07:52:16.098Z,23.69
2023-03-26T07:55:03.845Z,24.04
2023-03-26T07:58:38.996Z,24.02
2023-03-26T08:01:53.651Z,23.34
2023-03-26T08:04:47.342Z,22.51
2023-03-26T08:08:13.884Z,22.05
2023-03-26T08:10:58.110Z,21.80
2023-03-26T08:13:35.838Z,22.32
2023-03-26T08:16:32.108Z,23.18
2023-03-26T08:19:26.967Z,23.54
2023-03-26T08:22:12.020Z,23.55
2023-03-26T08:24:53.701Z,23.47
2023-03-26T08:27:34.674Z,23.44
2023-03-26T08:30:06.226Z,23.38
2023-03-26T08:32:34.620Z,22.84
2023-03-26T08:35:04.214Z,22.16
2023-03-26T08:37:32.216Z,21.60
2023-03-26T08:40:46.711Z,21.29
2023-03-26T08:43:55.496Z,20.94
2023-03-26T08:46:53.147Z,20.69
2023-03-26T08:49:45.824Z,20.46
2023-03-26T08:52:16.009Z,20.02
2023-03-26T08:55:11.930Z,19.85
2023-03-26T08:58:02.837Z,19.38
2023-03-26T09:00:49.243Z,19.21
2023-03-26T09:03:29.277Z,19.17
2023-03-26T09:06:00.276Z,19.27
2023-03-26T09:09:09.907Z,19.03
2023-03-26T09:12:06.734Z,18.73
2023-03-26T09:14:54.521Z,18.42
2023-03-26T09:17:25.946Z,18.44
2023-03-26T09:20:22.053Z,18.28
2023-03-26T09:23:16.670Z,18.01
2023-03-26T09:26:29.874Z,17.88
2023-03-26T09:29:33.368Z,17.67
2023-03-26T09:32:02.523Z,17.63
2023-03-26T09:35:15.823Z,17.51
2023-03-26T09:37:59.333Z,17.52
2023-03-26T09:40:44.210Z,17.48
2023-03-26T09:43:46.908Z,17.47
2023-03-26T09:46:52.744Z,17.50
2023-03-26T09:49:41.204Z,17.57
2023-03-26T09:52:12.349Z,17.67
2023-03-26T09:55:08.472Z,17.66
2023-03-26T09:57:45.807Z,17.41
2023-03-26T10:00:14.036Z,17.34
2023-03-26T10:03:18.728Z,17.22
2023-03-26T10:05:52.602Z,17.08
2023-03-26T10:08:31.624Z,17.02
2023-03-26T10:11:23.125Z,17.05
2023-03-26T10:14:38.397Z,17.02
2023-03-26T10:17:28.523Z,16.85
2023-03-26T10:20:34.043Z,16.84
2023-03-26T10:23:20.956Z,16.92
2023-03-26T10:26:18.983Z,16.90
2023-03-26T10:30:14.366Z,16.86
2023-03-26T10:37:25.976Z,17.36
2023-03-26T10:40:13.811Z,17.33
2023-03-26T10:43:00.416Z,17.29
2023-03-26T10:45:28.916Z,17.38
2023-03-26T10:48:24.182Z,17.33
2023-03-26T10:51:26.895Z,17.16
2023-03-26T10:54:00.933Z,16.88
2023-03-26T10:56:39.443Z,16.82
2023-03-26T10:59:15.882Z,16.76
2023-03-26T11:02:06.196Z,16.71
2023-03-26T11:04:53.904Z,16.66
2023-03-26T11:07:35.206Z,16.70
2023-03-26T11:10:25.411Z,16.82
2023-03-26T11:13:33.593Z,16.81
2023-03-26T11:16:14.319Z,16.73
2023-03-26T11:18:54.111Z,16.78
2023-03-26T11:21:42.479Z,16.85
2023-03-26T11:24:19.847Z,16.98
2023-03-26T11:27:26.566Z,17.12
2023-03-26T11:30:18.866Z,17.15
2023-03-26T11:32:57.350Z,17.23
2023-03-26T11:35:47.801Z,17.27
2023-03-26T11:38:21.821Z,17.21
2023-03-26T11:40:55.390Z,16.93
2023-03-26T11:43:41.432Z,16.57
2023-03-26T11:46:17.701Z,16.32
2023-03-26T11:48:49.304Z,16.21
2023-03-26T11:51:27.744Z,16.30
2023-03-26T11:53:57.911Z,16.42
2023-03-26T11:57:04.410Z,16.30
2023-03-26T11:59:57.969Z,16.11
2023-03-26T12:02:38.360Z,16.14
2023-03-26T12:05:16.220Z,16.11
2023-03-26T12:07:55.991Z,16.24
2023-03-26T12:10:38.312Z,16.24
2023-03-26T12:13:21.352Z,16.24
2023-03-26T12:15:49.895Z,16.25
2023-03-26T12:18:28.652Z,16.22
2023-03-26T12:21:08.549Z,16.19
2023-03-26T12:23:51.093Z,16.05
2023-03-26T12:26:21.401Z,16.17
2023-03-26T12:28:51.416Z,16.35
2023-03-26T12:31:20.753Z,16.62
2023-03-26T12:34:16.332Z,16.94
2023-03-26T12:36:56.665Z,17.23
2023-03-26T12:40:09.886Z,17.38
2023-03-26T12:44:48.634Z,17.38
2023-03-26T12:45:37.151Z,17.42
2023-03-26T12:48:06.076Z,17.53
2023-03-26T12:50:57.674Z,17.58
2023-03-26T12:54:03.912Z,17.57
2023-03-26T12:56:38.535Z,17.42
2023-03-26T12:59:18.577Z,17.35
2023-03-26T13:01:53.105Z,17.40
2023-03-26T13:04:58.434Z,17.48
2023-03-26T13:07:40.060Z,17.49
2023-03-26T13:10:08.821Z,17.48
2023-03-26T13:13:05.277Z,17.45
2023-03-26T13:15:38.728Z,17.27
2023-03-26T13:18:27.412Z,17.22
2023-03-26T13:21:17.310Z,17.26
2023-03-26T13:24:05.399Z,17.16
2023-03-26T13:26:55.373Z,16.84
2023-03-26T13:29:40.126Z,16.67
2023-03-26T13:32:38.108Z,16.38
2023-03-26T13:35:30.942Z,16.23
2023-03-26T13:38:05.324Z,16.15
2023-03-26T13:40:49.921Z,16.02
2023-03-26T13:43:39.063Z,16.02
2023-03-26T13:46:16.069Z,15.99
2023-03-26T13:49:17.340Z,15.87
2023-03-26T13:51:52.330Z,15.79
2023-03-26T13:54:23.578Z,15.76
2023-03-26T13:57:19.143Z,15.55
2023-03-26T14:00:06.399Z,15.31
2023-03-26T14:03:13.087Z,15.12
2023-03-26T14:05:50.159Z,15.03
2023-03-26T14:08:51.734Z,15.08
2023-03-26T14:11:32.700Z,15.17
2023-03-26T14:14:06.817Z,15.22
2023-03-26T14:16:39.597Z,15.17
2023-03-26T14:20:02.260Z,15.07
2023-03-26T14:22:39.532Z,15.08
2023-03-26T14:25:25.686Z,15.12
2023-03-26T14:28:44.414Z,15.16
2023-03-26T14:31:29.270Z,15.11
2023-03-26T14:34:35.419Z,15.04
2023-03-26T14:37:28.452Z,14.95
2023-03-26T14:40:08.184Z,14.86
2023-03-26T14:42:36.495Z,14.71
2023-03-26T14:45:32.624Z,14.60
2023-03-26T14:48:19.468Z,14.54
2023-03-26T14:51:24.999Z,14.40
2023-03-26T14:53:59.313Z,14.29
2023-03-26T14:56:47.151Z,14.10
2023-03-26T14:59:35.873Z,13.92
2023-03-26T15:02:22.763Z,13.73
2023-03-26T15:04:54.056Z,13.62
2023-03-26T15:07:46.821Z,13.61
2023-03-26T15:10:52.331Z,13.61
2023-03-26T15:13:59.722Z,13.60
2023-03-26T15:16:58.546Z,13.58
2023-03-26T15:19:33.798Z,13.50
2023-03-26T15:22:14.154Z,13.42
2023-03-26T15:25:37.930Z,13.34
2023-03-26T15:28:28.118Z,13.20
2023-03-26T15:30:59.260Z,13.16
2023-03-26T15:33:51.499Z,13.17
2023-03-26T15:36:58.992Z,13.13
2023-03-26T15:40:08.053Z,13.12
2023-03-26T15:42:53.809Z,13.19
2023-03-26T15:45:37.936Z,13.17
2023-03-26T15:48:12.740Z,13.13
2023-03-26T15:50:48.449Z,13.07
2023-03-26T15:53:23.687Z,13.00
2023-03-26T15:56:14.282Z,12.89
2023-03-26T15:59:11.332Z,12.79
2023-03-26T16:01:51.736Z,12.61
2023-03-26T16:04:50.329Z,12.49
2023-03-26T16:07:47.265Z,12.37
2023-03-26T16:10:18.394Z,12.24
2023-03-26T16:13:14.515Z,12.11
2023-03-26T16:15:44.206Z,11.97
2023-03-26T16:18:15.767Z,11.83
2023-03-26T16:20:55.185Z,11.67
2023-03-26T16:23:30.150Z,11.62
2023-03-26T16:26:22.890Z,11.58
2023-03-26T16:28:53.115Z,11.45
2023-03-26T16:31:37.594Z,11.36
2023-03-26T16:34:20.333Z,11.28
2023-03-26T16:36:51.720Z,11.22
2023-03-26T16:39:37.250Z,11.21
2023-03-26T16:42:54.709Z,11.17
2023-03-26T16:46:00.840Z,11.11
2023-03-26T16:48:41.510Z,11.06
2023-03-26T16:51:10.470Z,10.99
2023-03-26T16:53:59.664Z,10.93
2023-03-26T16:56:36.073Z,10.87
2023-03-26T16:59:26.922Z,10.83
2023-03-26T17:02:05.280Z,10.76
2023-03-26T17:04:35.753Z,10.67
2023-03-26T17:07:31.472Z,10.60
2023-03-26T17:10:16.243Z,10.56
2023-03-26T17:12:51.405Z,10.51
2023-03-26T17:15:41.160Z,10.44
2023-03-26T17:18:24.746Z,10.35
2023-03-26T17:21:14.982Z,10.27
2023-03-26T17:24:26.177Z,10.18
2023-03-26T17:27:23.850Z,10.10
2023-03-26T17:30:03.493Z,10.02
2023-03-26T17:32:56.498Z,9.95
2023-03-26T17:35:43.268Z,9.85
2023-03-26T17:38:17.146Z,9.74
2023-03-26T17:40:49.592Z,9.64
2023-03-26T17:43:50.891Z,9.56
2023-03-26T17:46:37.693Z,9.45
2023-03-26T17:49:11.702Z,9.31
2023-03-26T17:51:42.645Z,9.16
2023-03-26T17:54:22.903Z,9.02
2023-03-26T17:56:53.555Z,8.86
2023-03-26T17:59:25.482Z,8.72
2023-03-26T18:02:01.054Z,8.56
2023-03-26T18:04:33.897Z,8.41
2023-03-26T18:07:27.826Z,8.27
2023-03-26T18:09:58.951Z,8.10
2023-03-26T18:12:39.377Z,7.91
2023-03-26T18:15:23.086Z,7.70
2023-03-26T18:18:18.268Z,7.52
2023-03-26T18:20:49.212Z,7.35
2023-03-26T18:23:25.976Z,7.21
2023-03-26T18:26:17.443Z,7.07
2023-03-26T18:28:53.968Z,6.93
2023-03-26T18:31:26.758Z,6.81
2023-03-26T18:33:59.383Z,6.70
2023-03-26T18:36:28.053Z,6.61
2023-03-26T18:38:58.432Z,6.52
2023-03-26T18:41:32.165Z,6.44
2023-03-26T18:44:06.668Z,6.37
2023-03-26T18:46:34.939Z,6.31
2023-03-26T18:49:04.219Z,6.25
2023-03-26T18:51:33.021Z,6.18
2023-03-26T18:54:06.015Z,6.11
2023-03-26T18:56:40.489Z,6.04
2023-03-26T18:59:32.032Z,5.98
2023-03-26T19:02:04.593Z,5.91
2023-03-26T19:04:35.033Z,5.84
2023-03-26T19:07:14.695Z,5.79
2023-03-26T19:09:43.554Z,5.74
2023-03-26T19:12:23.546Z,5.70
2023-03-26T19:15:05.002Z,5.66
2023-03-26T19:17:48.680Z,5.60
2023-03-26T19:20:24.188Z,5.54
2023-03-26T19:22:53.320Z,5.52
2023-03-26T19:25:52.298Z,5.50
2023-03-26T19:28:39.638Z,5.45
2023-03-26T19:31:19.791Z,5.39
2023-03-26T19:33:58.178Z,5.34
2023-03-26T19:36:32.270Z,5.27
2023-03-26T19:39:00.903Z,5.21
2023-03-26T19:41:43.758Z,5.14
2023-03-26T19:44:29.475Z,5.06
2023-03-26T19:47:07.965Z,4.99
2023-03-26T19:49:51.244Z,4.93
2023-03-26T19:52:21.691Z,4.85
2023-03-26T19:55:00.227Z,4.81
2023-03-26T19:57:32.212Z,4.75
2023-03-26T20:00:00.778Z,4.69
2023-03-26T20:02:29.259Z,4.67
2023-03-26T20:05:26.192Z,4.61
2023-03-26T20:08:00.041Z,4.54
2023-03-26T20:10:28.671Z,4.50
2023-03-26T20:13:24.904Z,4.43
2023-03-26T20:16:35.164Z,4.38
2023-03-26T20:19:04.434Z,4.32
2023-03-26T20:21:38.097Z,4.27
2023-03-26T20:24:15.806Z,4.22
2023-03-26T20:26:47.635Z,4.17
2023-03-26T20:29:16.554Z,4.12
2023-03-26T20:31:46.262Z,4.07
2023-03-26T20:34:22.101Z,4.01
2023-03-26T20:36:55.998Z,3.97
2023-03-26T20:39:24.945Z,3.89
2023-03-26T20:41:57.070Z,3.84
2023-03-26T20:44:27.040Z,3.80
2023-03-26T20:46:56.584Z,3.78
2023-03-26T20:49:25.057Z,3.76
2023-03-26T20:51:53.020Z,3.73
2023-03-26T20:54:23.748Z,3.71
2023-03-26T20:56:54.309Z,3.68
2023-03-26T20:59:28.978Z,3.65
2023-03-26T21:01:58.086Z,3.61
2023-03-26T21:04:27.041Z,3.60
2023-03-26T21:07:07.291Z,3.57
2023-03-26T21:09:44.908Z,3.54
2023-03-26T21:12:38.525Z,3.51
2023-03-26T21:15:16.687Z,3.47
2023-03-26T21:17:52.288Z,3.43
2023-03-26T21:20:22.095Z,3.40
2023-03-26T21:23:07.982Z,3.37
2023-03-26T21:25:41.797Z,3.33
2023-03-26T21:28:42.934Z,3.28
2023-03-26T21:31:18.621Z,3.24
2023-03-26T21:33:49.254Z,3.19
2023-03-26T21:36:19.951Z,3.15
2023-03-26T21:38:50.506Z,3.11
2023-03-26T21:41:44.060Z,3.07
2023-03-26T21:44:14.288Z,3.02
2023-03-26T21:46:44.182Z,2.98
2023-03-26T21:49:14.153Z,2.94
2023-03-26T21:51:43.451Z,2.90
2023-03-26T21:54:25.566Z,2.86
2023-03-26T21:57:09.665Z,2.83
2023-03-26T22:00:02.719Z,2.79
2023-03-26T22:03:08.499Z,2.74
2023-03-26T22:06:00.214Z,2.70
2023-03-26T22:08:38.691Z,2.66
2023-03-26T22:11:08.748Z,2.63
2023-03-26T22:13:38.867Z,2.62
2023-03-26T22:16:08.826Z,2.59
2023-03-26T22:18:37.096Z,2.57
2023-03-26T22:21:06.037Z,2.54
2023-03-26T22:23:38.525Z,2.51
2023-03-26T22:26:07.310Z,2.51
2023-03-26T22:28:35.503Z,2.50
2023-03-26T22:31:09.096Z,2.49
2023-03-26T22:33:40.032Z,2.47
2023-03-26T22:36:22.163Z,2.45
2023-03-26T22:38:53.914Z,2.42
2023-03-26T22:41:23.243Z,2.37
2023-03-26T22:43:54.592Z,2.36
2023-03-26T22:46:22.938Z,2.34
2023-03-26T22:48:51.552Z,2.34
2023-03-26T22:51:19.774Z,2.33
2023-03-26T22:53:47.945Z,2.29
2023-03-26T22:56:17.242Z,2.26
2023-03-26T22:58:45.479Z,2.24
2023-03-26T23:01:17.864Z,2.18
2023-03-26T23:03:46.750Z,2.13
2023-03-26T23:06:16.218Z,2.07
2023-03-26T23:08:44.385Z,2.04
2023-03-26T23:11:14.908Z,2.02
2023-03-26T23:13:44.702Z,2.01
2023-03-26T23:16:14.559Z,2.00
2023-03-26T23:18:43.721Z,1.98
2023-03-26T23:21:20.079Z,1.93
2023-03-26T23:23:50.001Z,1.91
2023-03-26T23:26:18.091Z,1.91
2023-03-26T23:28:46.876Z,1.90
2023-03-26T23:31:15.132Z,1.89
2023-03-26T23:33:46.782Z,1.87
2023-03-26T23:36:18.583Z,1.85
2023-03-26T23:38:49.006Z,1.84
2023-03-26T23:41:21.847Z,1.82
2023-03-26T23:43:53.451Z,1.80
2023-03-26T23:46:30.269Z,1.76
2023-03-26T23:49:02.555Z,1.72
2023-03-26T23:51:31.723Z,1.67
2023-03-26T23:54:01.683Z,1.65
2023-03-26T23:56:30.280Z,1.64
2023-03-26T23:58:59.343Z,1.65
